createdAt,value
2022-08-23T00:00:47.119Z,18.58
2022-08-23T00:02:51.561Z,17.73
2022-08-23T00:05:07.646Z,18.75
2022-08-23T00:07:12.124Z,18.00
2022-08-23T00:09:14.200Z,19.02
2022-08-23T00:11:27.065Z,17.85
2022-08-23T00:13:47.995Z,17.92
2022-08-23T00:15:50.727Z,18.10
2022-08-23T00:17:52.391Z,17.50
2022-08-23T00:19:53.915Z,18.08
2022-08-23T00:21:56.073Z,18.77
2022-08-23T00:23:57.900Z,18.17
2022-08-23T00:26:02.667Z,19.05
2022-08-23T00:28:04.174Z,18.35
2022-08-23T00:30:14.694Z,18.80
2022-08-23T00:32:17.977Z,19.00
2022-08-23T00:34:20.877Z,19.98
2022-08-23T00:36:22.555Z,19.23
2022-08-23T00:38:33.800Z,19.23
2022-08-23T00:40:36.495Z,19.15
2022-08-23T00:42:56.932Z,19.40
2022-08-23T00:45:19.688Z,20.02
2022-08-23T00:47:40.592Z,18.70
2022-08-23T00:49:43.307Z,18.45
2022-08-23T00:51:53.203Z,18.38
2022-08-23T00:53:56.943Z,18.35
2022-08-23T00:56:01.791Z,18.42
2022-08-23T00:58:03.685Z,17.88
2022-08-23T01:00:07.551Z,19.58
2022-08-23T01:02:09.527Z,19.20
2022-08-23T01:04:12.753Z,18.40
2022-08-23T01:06:16.824Z,18.85
2022-08-23T01:08:19.387Z,17.58
2022-08-23T01:10:31.979Z,18.65
2022-08-23T01:12:36.995Z,20.10
2022-08-23T01:14:49.404Z,17.95
2022-08-23T01:16:55.131Z,18.55
2022-08-23T01:18:56.863Z,17.92
2022-08-23T01:21:03.243Z,18.08
2022-08-23T01:23:26.217Z,19.02
2022-08-23T01:25:30.211Z,17.35
2022-08-23T01:27:32.186Z,18.15
2022-08-23T01:31:36.435Z,16.90
2022-08-23T01:33:38.640Z,17.17
2022-08-23T01:35:41.983Z,17.67
2022-08-23T01:37:44.341Z,18.08
2022-08-23T01:39:46.038Z,18.10
2022-08-23T01:41:47.597Z,17.67
2022-08-23T01:43:49.291Z,19.15
2022-08-23T01:45:51.183Z,20.77
2022-08-23T01:47:52.724Z,20.75
2022-08-23T01:49:54.185Z,20.98
2022-08-23T01:51:55.969Z,20.42
2022-08-23T01:53:58.192Z,20.63
2022-08-23T01:56:01.728Z,22.67
2022-08-23T01:58:05.231Z,22.40
2022-08-23T02:00:08.176Z,22.40
2022-08-23T02:02:09.743Z,24.35
2022-08-23T02:04:11.481Z,23.63
2022-08-23T02:06:12.938Z,22.77
2022-08-23T02:08:33.470Z,24.40
2022-08-23T02:10:35.125Z,25.50
2022-08-23T02:12:37.315Z,26.63
2022-08-23T02:14:42.040Z,26.58
2022-08-23T02:17:03.601Z,26.80
2022-08-23T02:19:06.533Z,28.13
2022-08-23T02:21:09.629Z,28.83
2022-08-23T02:23:11.568Z,30.17
2022-08-23T02:25:12.984Z,30.30
2022-08-23T02:27:15.407Z,28.85
2022-08-23T02:29:18.996Z,32.05
2022-08-23T02:33:22.079Z,29.35
2022-08-23T02:35:24.164Z,29.17
2022-08-23T02:37:25.705Z,31.15
2022-08-23T02:39:27.241Z,32.70
2022-08-23T02:41:30.025Z,32.50
2022-08-23T02:43:31.548Z,32.85
2022-08-23T02:45:33.721Z,31.48
2022-08-23T02:47:36.905Z,31.65
2022-08-23T02:49:38.636Z,32.65
2022-08-23T02:51:40.532Z,31.98
2022-08-23T02:53:42.792Z,34.70
2022-08-23T02:55:45.070Z,33.70
2022-08-23T02:57:46.614Z,32.55
2022-08-23T02:59:48.263Z,32.38
2022-08-23T03:01:50.249Z,34.65
2022-08-23T03:03:52.110Z,30.60
2022-08-23T03:05:53.868Z,31.77
2022-08-23T03:07:55.643Z,30.52
2022-08-23T03:09:57.192Z,33.90
2022-08-23T03:11:58.999Z,31.95
2022-08-23T03:14:01.241Z,32.58
2022-08-23T03:16:02.955Z,33.35
2022-08-23T03:18:04.760Z,31.37
2022-08-23T03:20:06.490Z,32.95
2022-08-23T03:22:08.019Z,32.90
2022-08-23T03:24:10.463Z,33.25
2022-08-23T03:26:13.247Z,33.97
2022-08-23T03:28:15.042Z,31.90
2022-08-23T03:30:20.034Z,31.77
2022-08-23T03:32:21.611Z,32.42
2022-08-23T03:34:27.175Z,30.45
2022-08-23T03:36:28.779Z,31.17
2022-08-23T03:38:30.301Z,32.50
2022-08-23T03:40:31.745Z,31.63
2022-08-23T03:42:33.441Z,30.30
2022-08-23T03:44:35.055Z,31.10
2022-08-23T03:46:37.215Z,30.60
2022-08-23T03:48:39.207Z,32.50
2022-08-23T03:50:41.103Z,30.38
2022-08-23T03:52:42.676Z,31.42
2022-08-23T03:54:44.479Z,31.42
2022-08-23T03:56:53.636Z,31.73
2022-08-23T03:58:55.483Z,32.95
2022-08-23T04:00:57.654Z,32.63
2022-08-23T04:02:59.276Z,31.90
2022-08-23T04:05:00.757Z,32.25
2022-08-23T04:07:02.935Z,31.92
2022-08-23T04:09:04.413Z,30.37
2022-08-23T04:11:06.079Z,29.77
2022-08-23T04:13:08.956Z,27.27
2022-08-23T04:15:11.750Z,27.83
2022-08-23T04:17:13.994Z,27.17
2022-08-23T04:19:16.256Z,27.42
2022-08-23T04:21:20.569Z,26.15
2022-08-23T04:23:22.045Z,26.05
2022-08-23T04:25:34.974Z,27.42
2022-08-23T04:27:37.245Z,23.15
2022-08-23T04:29:39.896Z,22.98
2022-08-23T04:31:41.944Z,24.50
2022-08-23T04:33:43.402Z,24.30
2022-08-23T04:35:45.130Z,24.92
2022-08-23T04:37:46.722Z,24.50
2022-08-23T04:40:07.184Z,23.27
2022-08-23T04:42:21.777Z,22.83
2022-08-23T04:44:24.831Z,22.88
2022-08-23T04:46:26.345Z,24.55
2022-08-23T04:48:27.937Z,21.50
2022-08-23T04:50:29.755Z,18.88
2022-08-23T04:52:31.419Z,17.58
2022-08-23T04:54:32.938Z,16.50
2022-08-23T04:56:34.952Z,17.10
2022-08-23T04:58:37.268Z,16.15
2022-08-23T05:00:39.412Z,15.23
2022-08-23T05:02:41.150Z,18.98
2022-08-23T05:04:44.908Z,16.90
2022-08-23T05:06:46.565Z,15.98
2022-08-23T05:08:48.242Z,16.73
2022-08-23T05:10:50.147Z,15.82
2022-08-23T05:12:51.959Z,17.17
2022-08-23T05:14:53.628Z,16.45
2022-08-23T05:16:55.199Z,15.88
2022-08-23T05:18:56.675Z,17.42
2022-08-23T05:20:58.443Z,16.77
2022-08-23T05:23:00.706Z,17.63
2022-08-23T05:25:02.250Z,16.98
2022-08-23T05:27:04.147Z,17.10
2022-08-23T05:29:05.559Z,16.35
2022-08-23T05:31:11.909Z,15.90
2022-08-23T05:33:13.691Z,15.68
2022-08-23T05:35:15.286Z,15.73
2022-08-23T05:37:17.835Z,15.93
2022-08-23T05:41:37.658Z,13.68
2022-08-23T05:43:39.992Z,15.38
2022-08-23T05:45:41.688Z,14.53
2022-08-23T05:47:46.251Z,15.55
2022-08-23T05:49:51.586Z,15.13
2022-08-23T05:51:53.243Z,13.93
2022-08-23T05:53:57.001Z,14.45
2022-08-23T05:56:07.722Z,13.27
2022-08-23T05:58:09.433Z,12.90
2022-08-23T06:00:14.497Z,13.30
2022-08-23T06:02:16.112Z,14.05
2022-08-23T06:04:17.961Z,12.35
2022-08-23T06:06:20.335Z,13.55
2022-08-23T06:08:22.400Z,12.35
2022-08-23T06:10:24.220Z,11.98
2022-08-23T06:12:26.141Z,13.40
2022-08-23T06:14:28.608Z,12.98
2022-08-23T06:16:32.415Z,12.88
2022-08-23T06:18:34.029Z,13.10
2022-08-23T06:20:37.240Z,12.75
2022-08-23T06:22:38.960Z,11.70
2022-08-23T06:24:40.416Z,12.10
2022-08-23T06:26:49.291Z,12.50
2022-08-23T06:28:52.571Z,12.15
2022-08-23T06:30:55.330Z,12.43
2022-08-23T06:32:56.813Z,12.77
2022-08-23T06:35:14.770Z,12.35
2022-08-23T06:37:20.494Z,12.20
2022-08-23T06:39:23.579Z,12.20
2022-08-23T06:41:25.388Z,11.32
2022-08-23T06:43:27.623Z,12.40
2022-08-23T06:45:34.836Z,12.18
2022-08-23T06:47:37.364Z,11.07
2022-08-23T06:49:39.615Z,11.23
2022-08-23T06:51:44.732Z,10.73
2022-08-23T06:53:47.744Z,10.75
2022-08-23T06:55:49.227Z,10.93
2022-08-23T06:57:50.712Z,10.63
2022-08-23T06:59:52.451Z,11.25
2022-08-23T07:01:55.837Z,11.23
2022-08-23T07:03:57.780Z,11.18
2022-08-23T07:06:00.024Z,10.93
2022-08-23T07:08:01.710Z,11.55
2022-08-23T07:10:03.450Z,10.70
2022-08-23T07:14:10.395Z,10.75
2022-08-23T07:16:11.905Z,10.75
2022-08-23T07:18:13.725Z,11.30
2022-08-23T07:20:15.708Z,11.30
2022-08-23T07:22:19.530Z,11.10
2022-08-23T07:24:22.142Z,11.20
2022-08-23T07:28:25.868Z,11.80
2022-08-23T07:30:28.167Z,11.38
2022-08-23T07:32:29.922Z,11.73
2022-08-23T07:34:31.730Z,11.10
2022-08-23T07:36:34.038Z,12.40
2022-08-23T07:38:36.166Z,11.45
2022-08-23T07:42:41.024Z,11.02
2022-08-23T07:44:42.603Z,11.35
2022-08-23T07:46:44.974Z,11.98
2022-08-23T07:48:54.459Z,11.43
2022-08-23T07:50:58.481Z,11.65
2022-08-23T07:53:02.836Z,11.88
2022-08-23T07:55:05.432Z,12.63
2022-08-23T07:59:10.465Z,12.27
2022-08-23T08:01:17.385Z,11.98
2022-08-23T08:03:21.307Z,11.68
2022-08-23T08:05:25.082Z,11.45
2022-08-23T08:07:28.437Z,12.52
2022-08-23T08:09:37.051Z,12.57
2022-08-23T08:11:41.643Z,12.20
2022-08-23T08:13:44.935Z,12.05
2022-08-23T08:15:46.446Z,11.82
2022-08-23T08:17:49.679Z,11.80
2022-08-23T08:21:53.181Z,12.93
2022-08-23T08:23:55.685Z,12.52
2022-08-23T08:26:05.667Z,12.38
2022-08-23T08:28:09.448Z,11.43
2022-08-23T08:30:14.798Z,11.90
2022-08-23T08:32:16.828Z,11.20
2022-08-23T08:34:18.366Z,11.35
2022-08-23T08:36:39.242Z,12.88
2022-08-23T08:38:48.473Z,12.10
2022-08-23T08:41:11.452Z,12.70
2022-08-23T08:43:19.951Z,12.88
2022-08-23T08:45:23.671Z,13.57
2022-08-23T08:47:32.768Z,12.90
2022-08-23T08:49:34.271Z,12.88
2022-08-23T08:51:41.673Z,13.63
2022-08-23T08:53:45.847Z,13.10
2022-08-23T08:55:55.608Z,13.05
2022-08-23T08:58:00.030Z,13.65
2022-08-23T09:00:05.113Z,13.00
2022-08-23T09:02:07.444Z,14.05
2022-08-23T09:04:29.882Z,13.18
2022-08-23T09:06:36.074Z,14.10
2022-08-23T09:08:45.962Z,12.23
2022-08-23T09:10:48.084Z,12.70
2022-08-23T09:12:54.294Z,13.32
2022-08-23T09:14:58.750Z,13.07
2022-08-23T09:17:05.596Z,13.23
2022-08-23T09:19:07.332Z,13.25
2022-08-23T09:21:10.217Z,13.20
2022-08-23T09:23:14.154Z,14.57
2022-08-23T09:25:17.032Z,12.80
2022-08-23T09:27:21.986Z,13.45
2022-08-23T09:29:23.684Z,13.23
2022-08-23T09:31:52.589Z,13.27
2022-08-23T09:33:54.219Z,12.88
2022-08-23T09:36:03.920Z,13.60
2022-08-23T09:38:17.108Z,13.48
2022-08-23T09:40:18.769Z,13.25
2022-08-23T09:42:29.545Z,13.77
2022-08-23T09:44:39.281Z,13.45
2022-08-23T09:46:44.334Z,13.15
2022-08-23T09:48:47.002Z,12.85
2022-08-23T09:50:51.070Z,13.98
2022-08-23T09:53:00.291Z,13.27
2022-08-23T09:55:04.125Z,13.13
2022-08-23T09:57:09.265Z,12.68
2022-08-23T09:59:26.572Z,12.35
2022-08-23T10:01:38.188Z,12.98
2022-08-23T10:03:42.823Z,13.10
2022-08-23T10:05:49.451Z,13.25
2022-08-23T10:08:00.406Z,13.10
2022-08-23T10:10:15.887Z,13.85
2022-08-23T10:12:17.376Z,12.77
2022-08-23T10:14:20.812Z,12.00
2022-08-23T10:16:31.086Z,13.15
2022-08-23T10:18:39.046Z,13.50
2022-08-23T10:20:47.183Z,13.00
2022-08-23T10:23:07.751Z,13.48
2022-08-23T10:25:18.351Z,13.07
2022-08-23T10:27:57.945Z,13.75
2022-08-23T10:30:29.112Z,12.90
2022-08-23T10:32:34.931Z,11.48
2022-08-23T10:34:55.104Z,12.60
2022-08-23T10:37:07.764Z,14.27
2022-08-23T10:39:26.791Z,13.32
2022-08-23T10:41:34.423Z,12.93
2022-08-23T10:43:41.646Z,12.85
2022-08-23T10:45:46.480Z,13.35
2022-08-23T10:47:58.835Z,13.10
2022-08-23T10:50:04.698Z,13.25
2022-08-23T10:52:07.761Z,12.73
2022-08-23T10:54:12.625Z,11.88
2022-08-23T10:56:20.898Z,12.82
2022-08-23T10:58:24.552Z,11.80
2022-08-23T11:00:26.642Z,11.25
2022-08-23T11:02:42.757Z,10.60
2022-08-23T11:04:51.540Z,10.90
2022-08-23T11:06:55.823Z,11.25
2022-08-23T11:08:58.161Z,10.63
2022-08-23T11:11:00.139Z,9.82
2022-08-23T11:13:06.457Z,9.60
2022-08-23T11:15:07.951Z,9.00
2022-08-23T11:17:25.006Z,9.33
2022-08-23T11:19:45.395Z,9.13
2022-08-23T11:21:48.100Z,8.93
2022-08-23T11:23:49.800Z,9.63
2022-08-23T11:25:51.522Z,9.32
2022-08-23T11:28:11.842Z,9.32
2022-08-23T11:30:43.220Z,8.75
2022-08-23T11:32:45.478Z,8.57
2022-08-23T11:37:07.924Z,7.68
2022-08-23T11:39:13.202Z,9.13
2022-08-23T11:41:25.567Z,8.48
2022-08-23T11:43:35.675Z,8.23
2022-08-23T11:45:37.421Z,8.85
2022-08-23T11:47:41.237Z,7.68
2022-08-23T11:50:06.839Z,8.65
2022-08-23T11:52:14.497Z,7.80
2022-08-23T11:54:28.107Z,8.68
2022-08-23T11:56:41.401Z,8.20
2022-08-23T11:58:51.807Z,8.20
2022-08-23T12:01:08.416Z,7.90
2022-08-23T12:03:22.311Z,8.85
2022-08-23T12:05:44.614Z,8.35
2022-08-23T12:08:06.196Z,7.95
2022-08-23T12:10:08.024Z,8.40
2022-08-23T12:12:27.672Z,8.57
2022-08-23T12:14:32.348Z,8.82
2022-08-23T12:16:36.317Z,9.57
2022-08-23T12:18:39.331Z,8.52
2022-08-23T12:20:48.320Z,8.48
2022-08-23T12:23:11.052Z,8.35
2022-08-23T12:25:18.395Z,9.93
2022-08-23T12:27:34.104Z,9.07
2022-08-23T12:29:48.920Z,8.93
2022-08-23T12:31:59.704Z,9.13
2022-08-23T12:34:12.755Z,8.77
2022-08-23T12:36:19.800Z,10.10
2022-08-23T12:38:28.316Z,9.75
2022-08-23T12:40:44.558Z,9.05
2022-08-23T12:42:46.773Z,8.57
2022-08-23T12:44:58.553Z,9.75
2022-08-23T12:47:10.608Z,9.00
2022-08-23T12:49:26.931Z,9.27
2022-08-23T12:51:29.025Z,9.27
2022-08-23T12:53:32.535Z,8.63
2022-08-23T12:55:36.625Z,8.65
2022-08-23T12:57:42.647Z,9.68
2022-08-23T13:00:01.476Z,9.90
2022-08-23T13:02:22.703Z,9.60
2022-08-23T13:04:24.795Z,9.23
2022-08-23T13:06:28.540Z,9.18
2022-08-23T13:08:36.824Z,10.07
2022-08-23T13:10:40.044Z,8.57
2022-08-23T13:12:42.163Z,9.23
2022-08-23T13:14:45.432Z,9.60
2022-08-23T13:16:47.171Z,10.02
2022-08-23T13:21:11.724Z,9.50
2022-08-23T13:23:17.614Z,8.23
2022-08-23T13:25:29.712Z,9.30
2022-08-23T13:27:38.577Z,10.48
2022-08-23T13:29:52.699Z,9.38
2022-08-23T13:32:04.117Z,8.93
2022-08-23T13:34:07.673Z,10.23
2022-08-23T13:36:16.841Z,9.90
2022-08-23T13:38:23.359Z,9.90
2022-08-23T13:40:27.693Z,9.77
2022-08-23T13:42:32.342Z,10.85
2022-08-23T13:44:34.553Z,9.27
2022-08-23T13:46:42.822Z,8.98
2022-08-23T13:48:47.252Z,9.10
2022-08-23T13:50:48.923Z,9.20
2022-08-23T13:53:13.550Z,10.00
2022-08-23T13:55:12.167Z,8.90
2022-08-23T13:57:15.413Z,9.80
2022-08-23T13:59:23.899Z,9.55
2022-08-23T14:01:32.808Z,10.55
2022-08-23T14:03:34.433Z,8.73
2022-08-23T14:05:36.281Z,12.60
2022-08-23T14:07:37.736Z,10.60
2022-08-23T14:09:39.446Z,10.90
2022-08-23T14:11:41.681Z,10.00
2022-08-23T14:13:45.018Z,9.77
2022-08-23T14:18:09.050Z,10.40
2022-08-23T14:22:34.906Z,11.05
2022-08-23T14:24:36.651Z,8.90
2022-08-23T14:26:38.398Z,10.32
2022-08-23T14:28:54.249Z,11.88
2022-08-23T14:30:56.645Z,9.75
2022-08-23T14:32:59.232Z,9.48
2022-08-23T14:35:01.106Z,11.15
2022-08-23T14:39:24.459Z,11.10
2022-08-23T14:41:27.416Z,10.52
2022-08-23T14:43:29.854Z,11.18
2022-08-23T14:45:32.396Z,11.70
2022-08-23T14:51:43.331Z,11.23
2022-08-23T14:53:46.204Z,10.70
2022-08-23T14:55:57.560Z,11.50
2022-08-23T14:58:08.845Z,9.57
2022-08-23T15:00:14.025Z,11.43
2022-08-23T15:02:19.053Z,10.52
2022-08-23T15:04:22.831Z,11.10
2022-08-23T15:06:24.374Z,11.02
2022-08-23T15:08:26.246Z,9.67
2022-08-23T15:15:14.111Z,11.88
2022-08-23T15:17:16.520Z,12.07
2022-08-23T15:19:17.951Z,11.20
2022-08-23T15:21:19.864Z,11.77
2022-08-23T15:23:22.072Z,11.95
2022-08-23T15:25:25.680Z,11.23
2022-08-23T15:27:27.790Z,11.25
2022-08-23T15:29:29.568Z,11.27
2022-08-23T15:31:31.268Z,11.37
2022-08-23T15:33:33.633Z,11.35
2022-08-23T15:35:38.483Z,10.07
2022-08-23T15:37:42.323Z,10.48
2022-08-23T15:39:46.290Z,10.15
2022-08-23T15:41:48.469Z,10.85
2022-08-23T15:43:50.212Z,11.57
2022-08-23T15:45:52.188Z,10.82
2022-08-23T15:47:55.143Z,10.87
2022-08-23T15:49:58.008Z,10.10
2022-08-23T15:52:00.029Z,10.85
2022-08-23T15:54:02.395Z,11.40
2022-08-23T15:56:07.767Z,10.00
2022-08-23T15:58:14.118Z,9.90
2022-08-23T16:00:17.848Z,10.07
2022-08-23T16:02:19.797Z,10.27
2022-08-23T16:04:21.948Z,9.70
2022-08-23T16:06:23.872Z,9.13
2022-08-23T16:08:30.334Z,9.82
2022-08-23T16:10:32.274Z,8.52
2022-08-23T16:12:34.099Z,9.67
2022-08-23T16:14:36.754Z,8.55
2022-08-23T16:16:40.396Z,8.90
2022-08-23T16:18:42.272Z,8.27
2022-08-23T16:20:44.160Z,8.68
2022-08-23T16:22:46.016Z,8.77
2022-08-23T16:24:47.835Z,9.15
2022-08-23T16:26:50.737Z,8.25
2022-08-23T16:28:53.410Z,8.50
2022-08-23T16:30:55.017Z,8.88
2022-08-23T16:32:57.264Z,8.77
2022-08-23T16:34:58.986Z,8.25
2022-08-23T16:37:04.600Z,8.73
2022-08-23T16:39:06.141Z,70.93
2022-08-23T16:41:07.960Z,16.10
2022-08-23T16:43:09.454Z,9.55
2022-08-23T16:45:11.597Z,9.48
2022-08-23T16:47:14.753Z,9.82
2022-08-23T16:49:17.090Z,8.80
2022-08-23T16:51:18.716Z,10.05
2022-08-23T16:53:20.644Z,9.53
2022-08-23T16:55:22.532Z,9.95
2022-08-23T16:57:24.091Z,9.07
2022-08-23T16:59:25.800Z,32.70
2022-08-23T17:01:27.994Z,13.20
2022-08-23T17:03:29.843Z,11.57
2022-08-23T17:05:31.603Z,10.90
2022-08-23T17:07:33.296Z,10.48
2022-08-23T17:09:34.783Z,9.98
2022-08-23T17:11:38.075Z,9.68
2022-08-23T17:13:39.954Z,10.10
2022-08-23T17:15:41.663Z,11.57
2022-08-23T17:17:44.199Z,13.33
2022-08-23T17:21:48.893Z,12.93
2022-08-23T17:23:51.080Z,12.35
2022-08-23T17:25:52.611Z,13.38
2022-08-23T17:27:55.384Z,11.85
2022-08-23T17:31:58.810Z,9.07
2022-08-23T17:34:03.327Z,9.40
2022-08-23T17:36:05.601Z,9.32
2022-08-23T17:38:07.100Z,10.05
2022-08-23T17:40:10.530Z,9.40
2022-08-23T17:42:14.776Z,73.03
2022-08-23T17:44:16.687Z,13.55
2022-08-23T17:46:18.242Z,9.47
2022-08-23T17:48:21.258Z,8.73
2022-08-23T17:50:23.907Z,9.35
2022-08-23T17:52:27.097Z,9.10
2022-08-23T17:54:28.880Z,8.65
2022-08-23T17:56:30.548Z,9.40
2022-08-23T17:58:32.520Z,15.05
2022-08-23T18:02:37.954Z,9.80
2022-08-23T18:04:40.047Z,8.85
2022-08-23T18:06:41.791Z,9.25
2022-08-23T18:08:43.553Z,8.50
2022-08-23T18:10:47.717Z,9.40
2022-08-23T18:12:49.570Z,9.10
2022-08-23T18:14:51.254Z,9.10
2022-08-23T18:16:52.873Z,9.90
2022-08-23T18:18:54.903Z,13.67
2022-08-23T18:20:56.739Z,9.45
2022-08-23T18:22:59.545Z,9.07
2022-08-23T18:25:01.196Z,9.80
2022-08-23T18:27:21.716Z,15.30
2022-08-23T18:29:23.552Z,9.48
2022-08-23T18:31:27.027Z,8.48
2022-08-23T18:33:32.329Z,8.82
2022-08-23T18:35:50.051Z,9.43
2022-08-23T18:37:52.376Z,9.20
2022-08-23T18:39:54.032Z,9.15
2022-08-23T18:41:55.571Z,9.50
2022-08-23T18:43:58.018Z,11.65
2022-08-23T18:45:59.810Z,9.27
2022-08-23T18:48:01.499Z,8.80
2022-08-23T18:50:07.424Z,9.35
2022-08-23T18:52:08.972Z,11.30
2022-08-23T18:54:11.471Z,10.18
2022-08-23T18:56:13.125Z,9.53
2022-08-23T18:58:14.584Z,12.50
2022-08-23T19:00:16.944Z,23.75
2022-08-23T19:02:19.444Z,12.73
2022-08-23T19:04:21.123Z,10.50
2022-08-23T19:06:22.992Z,11.02
2022-08-23T19:08:24.993Z,9.45
2022-08-23T19:10:26.963Z,10.82
2022-08-23T19:12:28.519Z,9.80
2022-08-23T19:14:32.122Z,9.50
2022-08-23T19:16:33.805Z,12.77
2022-08-23T19:18:35.756Z,14.35
2022-08-23T19:20:38.102Z,9.95
2022-08-23T19:22:39.868Z,9.50
2022-08-23T19:24:41.411Z,10.13
2022-08-23T19:26:47.379Z,9.35
2022-08-23T19:28:49.232Z,9.15
2022-08-23T19:30:50.699Z,9.90
2022-08-23T19:32:52.434Z,9.70
2022-08-23T19:34:54.216Z,10.10
2022-08-23T19:37:01.133Z,9.15
2022-08-23T19:39:05.467Z,9.57
2022-08-23T19:41:07.140Z,10.10
2022-08-23T19:43:10.027Z,9.60
2022-08-23T19:45:11.787Z,9.95
2022-08-23T19:47:19.559Z,9.88
2022-08-23T19:49:22.893Z,10.02
2022-08-23T19:51:24.714Z,10.90
2022-08-23T19:53:26.196Z,10.00
2022-08-23T19:55:28.000Z,10.30
2022-08-23T19:57:29.645Z,14.05
2022-08-23T19:59:35.251Z,9.90
2022-08-23T20:01:36.871Z,9.40
2022-08-23T20:03:38.556Z,9.20
2022-08-23T20:05:40.044Z,9.85
2022-08-23T20:07:42.107Z,9.30
2022-08-23T20:09:43.818Z,9.55
2022-08-23T20:11:46.331Z,9.57
2022-08-23T20:13:49.411Z,10.38
2022-08-23T20:15:54.279Z,26.95
2022-08-23T20:17:58.772Z,9.68
2022-08-23T20:20:00.271Z,10.05
2022-08-23T20:22:20.975Z,10.82
2022-08-23T20:24:37.390Z,9.88
2022-08-23T20:26:48.323Z,9.20
2022-08-23T20:28:59.105Z,11.02
2022-08-23T20:31:35.121Z,15.13
2022-08-23T20:33:36.800Z,9.98
2022-08-23T20:35:38.424Z,9.50
2022-08-23T20:37:40.123Z,9.50
2022-08-23T20:39:41.607Z,9.27
2022-08-23T20:41:43.328Z,9.00
2022-08-23T20:43:47.640Z,10.03
2022-08-23T20:45:49.189Z,9.32
2022-08-23T20:47:50.939Z,9.50
2022-08-23T20:49:52.478Z,9.57
2022-08-23T20:51:53.926Z,9.15
2022-08-23T20:53:56.268Z,9.87
2022-08-23T20:55:58.570Z,9.43
2022-08-23T20:58:00.716Z,9.07
2022-08-23T21:00:03.001Z,8.82
2022-08-23T21:02:04.728Z,9.60
2022-08-23T21:04:07.134Z,9.55
2022-08-23T21:06:14.371Z,9.20
2022-08-23T21:08:16.438Z,10.05
2022-08-23T21:10:18.273Z,10.77
2022-08-23T21:12:19.979Z,11.18
2022-08-23T21:14:22.548Z,12.35
2022-08-23T21:16:24.600Z,11.35
2022-08-23T21:18:26.479Z,10.77
2022-08-23T21:20:28.192Z,11.27
2022-08-23T21:22:32.061Z,9.90
2022-08-23T21:24:34.069Z,10.82
2022-08-23T21:26:36.670Z,10.20
2022-08-23T21:28:39.015Z,9.27
2022-08-23T21:30:40.828Z,9.95
2022-08-23T21:32:42.253Z,9.50
2022-08-23T21:34:43.678Z,10.18
2022-08-23T21:36:45.302Z,10.00
2022-08-23T21:38:46.738Z,9.07
2022-08-23T21:40:59.100Z,9.80
2022-08-23T21:43:01.099Z,10.32
2022-08-23T21:45:03.059Z,10.40
2022-08-23T21:47:04.554Z,9.32
2022-08-23T21:49:06.577Z,10.13
2022-08-23T21:51:08.933Z,10.77
2022-08-23T21:53:10.852Z,10.30
2022-08-23T21:55:12.763Z,10.63
2022-08-23T21:57:15.118Z,11.18
2022-08-23T21:59:17.657Z,10.27
2022-08-23T22:01:19.427Z,10.25
2022-08-23T22:03:20.928Z,10.68
2022-08-23T22:05:22.391Z,9.70
2022-08-23T22:07:24.129Z,10.18
2022-08-23T22:09:31.361Z,10.38
2022-08-23T22:11:34.971Z,10.60
2022-08-23T22:13:37.167Z,10.85
2022-08-23T22:15:38.667Z,10.00
2022-08-23T22:17:41.271Z,11.02
2022-08-23T22:19:42.991Z,10.93
2022-08-23T22:21:46.181Z,9.82
2022-08-23T22:23:48.906Z,10.55
2022-08-23T22:25:50.926Z,10.52
2022-08-23T22:27:52.916Z,10.63
2022-08-23T22:29:54.519Z,10.63
2022-08-23T22:31:56.430Z,10.70
2022-08-23T22:33:57.844Z,10.40
2022-08-23T22:36:03.902Z,10.38
2022-08-23T22:38:14.375Z,10.40
2022-08-23T22:40:16.340Z,11.13
2022-08-23T22:42:18.191Z,10.38
2022-08-23T22:44:19.859Z,10.13
2022-08-23T22:46:21.639Z,10.40
2022-08-23T22:48:23.340Z,9.95
2022-08-23T22:50:25.130Z,10.32
2022-08-23T22:52:26.562Z,10.30
2022-08-23T22:54:28.160Z,10.35
2022-08-23T22:56:31.391Z,10.50
2022-08-23T23:00:40.365Z,10.68
2022-08-23T23:02:43.047Z,10.05
2022-08-23T23:04:44.501Z,10.77
2022-08-23T23:06:47.913Z,10.65
2022-08-23T23:08:50.211Z,10.33
2022-08-23T23:10:51.711Z,10.47
2022-08-23T23:12:53.365Z,10.60
2022-08-23T23:14:55.032Z,10.55
2022-08-23T23:16:56.605Z,9.60
2022-08-23T23:19:17.636Z,10.45
2022-08-23T23:21:19.251Z,10.43
2022-08-23T23:23:22.075Z,10.18
2022-08-23T23:27:25.277Z,10.48
2022-08-23T23:29:27.105Z,9.98
2022-08-23T23:31:28.742Z,10.38
2022-08-23T23:33:30.378Z,10.02
2022-08-23T23:35:31.946Z,10.60
2022-08-23T23:37:33.373Z,9.40
2022-08-23T23:39:35.130Z,10.25
2022-08-23T23:41:36.645Z,9.60
2022-08-23T23:43:38.360Z,10.70
2022-08-23T23:45:41.101Z,10.43
2022-08-23T23:49:44.224Z,10.48
2022-08-23T23:51:46.307Z,10.35
2022-08-23T23:53:47.800Z,10.27
2022-08-23T23:55:49.239Z,10.25
2022-08-23T23:57:50.891Z,10.60
2022-08-23T23:59:52.784Z,10.30
